createdAt,value
2019-02-16T00:00:29.025Z,62.76
2019-02-16T00:02:56.276Z,62.92
2019-02-16T00:05:23.531Z,63.00
2019-02-16T00:07:50.756Z,63.06
2019-02-16T00:10:18.023Z,63.02
2019-02-16T00:12:45.238Z,62.83
2019-02-16T00:15:12.456Z,63.12
2019-02-16T00:17:39.719Z,63.29
2019-02-16T00:20:07.160Z,63.10
2019-02-16T00:22:34.462Z,63.03
2019-02-16T00:25:01.776Z,63.12
2019-02-16T00:27:28.996Z,63.18
2019-02-16T00:29:56.216Z,63.13
2019-02-16T00:32:23.519Z,63.08
2019-02-16T00:34:50.751Z,63.18
2019-02-16T00:37:18.029Z,63.30
2019-02-16T00:39:45.269Z,63.26
2019-02-16T00:42:12.465Z,63.28
2019-02-16T00:44:39.713Z,63.28
2019-02-16T00:47:06.930Z,63.33
2019-02-16T00:49:34.153Z,63.38
2019-02-16T00:52:01.419Z,63.29
2019-02-16T00:54:28.653Z,63.32
2019-02-16T00:56:55.918Z,63.25
2019-02-16T00:59:23.157Z,63.27
2019-02-16T01:01:50.407Z,63.32
2019-02-16T01:04:17.662Z,63.39
2019-02-16T01:06:44.940Z,63.40
2019-02-16T01:09:12.203Z,63.44
2019-02-16T01:11:39.447Z,63.44
2019-02-16T01:14:06.681Z,63.37
2019-02-16T01:16:33.942Z,63.39
2019-02-16T01:19:01.584Z,63.36
2019-02-16T01:21:28.850Z,63.40
2019-02-16T01:23:56.210Z,63.37
2019-02-16T01:26:23.423Z,63.33
2019-02-16T01:28:50.637Z,63.32
2019-02-16T01:31:17.900Z,63.29
2019-02-16T01:33:45.648Z,63.63
2019-02-16T01:36:13.094Z,63.63
2019-02-16T01:38:40.358Z,63.64
2019-02-16T01:41:07.655Z,63.63
2019-02-16T01:43:34.947Z,63.57
2019-02-16T01:46:02.274Z,63.60
2019-02-16T01:48:29.543Z,63.72
2019-02-16T01:50:56.821Z,63.99
2019-02-16T01:53:24.107Z,64.42
2019-02-16T01:55:51.443Z,64.37
2019-02-16T01:58:18.741Z,64.37
2019-02-16T02:00:46.024Z,64.68
2019-02-16T02:03:13.268Z,64.45
2019-02-16T02:05:40.558Z,64.42
2019-02-16T02:08:07.791Z,64.38
2019-02-16T02:10:35.027Z,64.35
2019-02-16T02:13:02.307Z,64.38
2019-02-16T02:15:29.560Z,64.38
2019-02-16T02:17:56.832Z,64.38
2019-02-16T02:20:24.060Z,64.62
2019-02-16T02:22:51.337Z,64.73
2019-02-16T02:25:18.751Z,64.88
2019-02-16T02:27:46.012Z,64.99
2019-02-16T02:30:13.278Z,64.86
2019-02-16T02:32:40.533Z,64.63
2019-02-16T02:35:07.804Z,64.48
2019-02-16T02:37:35.130Z,64.33
2019-02-16T02:40:02.383Z,64.28
2019-02-16T02:42:29.615Z,64.49
2019-02-16T02:44:56.964Z,64.57
2019-02-16T02:47:24.239Z,64.42
2019-02-16T02:49:51.565Z,64.33
2019-02-16T02:52:18.855Z,64.21
2019-02-16T02:54:46.123Z,64.14
2019-02-16T02:57:13.432Z,64.16
2019-02-16T02:59:40.700Z,64.25
2019-02-16T03:02:07.920Z,64.24
2019-02-16T03:04:35.201Z,64.34
2019-02-16T03:07:02.505Z,64.36
2019-02-16T03:09:29.762Z,64.33
2019-02-16T03:11:56.986Z,64.26
2019-02-16T03:14:24.278Z,64.23
2019-02-16T03:16:51.547Z,64.22
2019-02-16T03:19:18.778Z,64.24
2019-02-16T03:21:46.051Z,64.21
2019-02-16T03:24:13.394Z,64.23
2019-02-16T03:26:53.959Z,64.23
2019-02-16T03:29:28.546Z,64.25
2019-02-16T03:32:33.092Z,64.21
2019-02-16T03:35:48.083Z,64.21
2019-02-16T03:38:49.920Z,64.34
2019-02-16T03:41:17.166Z,64.75
2019-02-16T03:43:44.397Z,64.94
2019-02-16T03:46:11.666Z,65.06
2019-02-16T03:48:38.931Z,65.22
2019-02-16T03:51:06.397Z,65.34
2019-02-16T03:53:33.669Z,65.38
2019-02-16T03:56:00.910Z,65.48
2019-02-16T03:58:28.144Z,65.50
2019-02-16T04:00:55.452Z,65.52
2019-02-16T04:03:22.697Z,65.44
2019-02-16T04:05:49.942Z,65.34
2019-02-16T04:08:17.227Z,65.11
2019-02-16T04:10:44.462Z,64.74
2019-02-16T04:13:11.698Z,64.67
2019-02-16T04:15:38.997Z,64.63
2019-02-16T04:18:06.272Z,64.57
2019-02-16T04:20:33.526Z,64.53
2019-02-16T04:23:00.899Z,64.54
2019-02-16T04:25:28.147Z,64.58
2019-02-16T04:27:55.354Z,64.82
2019-02-16T04:30:22.592Z,65.45
2019-02-16T04:32:49.864Z,66.18
2019-02-16T04:35:17.104Z,66.45
2019-02-16T04:37:44.330Z,66.30
2019-02-16T04:40:11.682Z,67.52
2019-02-16T04:42:39.296Z,67.06
2019-02-16T04:45:06.710Z,67.05
2019-02-16T04:47:33.944Z,66.78
2019-02-16T04:50:01.230Z,66.65
2019-02-16T04:52:34.795Z,66.67
2019-02-16T04:54:57.570Z,66.79
2019-02-16T04:57:24.832Z,67.41
2019-02-16T04:59:52.115Z,67.58
2019-02-16T05:02:19.377Z,67.75
2019-02-16T05:04:46.702Z,68.14
2019-02-16T05:07:13.932Z,68.46
2019-02-16T05:09:41.198Z,68.44
2019-02-16T05:12:08.417Z,68.43
2019-02-16T05:14:35.632Z,68.35
2019-02-16T05:17:02.867Z,68.03
2019-02-16T05:19:30.072Z,68.29
2019-02-16T05:21:57.269Z,68.25
2019-02-16T05:24:24.576Z,68.42
2019-02-16T05:26:51.787Z,68.61
2019-02-16T05:29:19.055Z,68.66
2019-02-16T05:31:46.301Z,68.84
2019-02-16T05:34:13.541Z,68.81
2019-02-16T05:36:40.813Z,68.83
2019-02-16T05:39:08.033Z,68.82
2019-02-16T05:41:35.255Z,69.13
2019-02-16T05:44:02.529Z,69.28
2019-02-16T05:46:29.741Z,69.12
2019-02-16T05:48:56.960Z,68.98
2019-02-16T05:51:24.204Z,69.02
2019-02-16T05:53:51.459Z,69.18
2019-02-16T05:56:18.759Z,69.92
2019-02-16T05:58:46.029Z,70.16
2019-02-16T06:01:13.245Z,70.02
2019-02-16T06:03:40.442Z,69.66
2019-02-16T06:06:07.721Z,69.46
2019-02-16T06:08:34.944Z,69.34
2019-02-16T06:11:02.164Z,69.23
2019-02-16T06:13:29.431Z,69.34
2019-02-16T06:15:56.690Z,69.48
2019-02-16T06:18:23.929Z,69.46
2019-02-16T06:20:51.194Z,69.34
2019-02-16T06:23:18.431Z,69.40
2019-02-16T06:25:45.669Z,69.90
2019-02-16T06:28:12.958Z,69.77
2019-02-16T06:30:40.202Z,69.49
2019-02-16T06:33:07.482Z,69.62
2019-02-16T06:35:59.893Z,69.53
2019-02-16T06:38:27.128Z,69.40
2019-02-16T06:40:54.376Z,69.14
2019-02-16T06:43:21.733Z,69.35
2019-02-16T06:45:48.961Z,69.34
2019-02-16T06:48:16.197Z,69.29
2019-02-16T06:53:24.251Z,69.03
2019-02-16T06:55:58.464Z,69.04
2019-02-16T06:58:25.703Z,68.97
2019-02-16T07:00:52.920Z,69.20
2019-02-16T07:03:20.173Z,69.26
2019-02-16T07:05:47.532Z,69.44
2019-02-16T07:08:14.782Z,69.57
2019-02-16T07:10:42.063Z,70.04
2019-02-16T07:13:09.420Z,70.03
2019-02-16T07:15:36.694Z,69.79
2019-02-16T07:18:18.133Z,69.95
2019-02-16T07:20:45.461Z,70.15
2019-02-16T07:23:21.976Z,70.49
2019-02-16T07:25:41.802Z,69.92
2019-02-16T07:28:09.070Z,70.16
2019-02-16T07:30:36.286Z,70.22
2019-02-16T07:33:03.519Z,70.13
2019-02-16T07:35:30.817Z,70.19
2019-02-16T07:37:58.030Z,70.16
2019-02-16T07:40:25.310Z,70.06
2019-02-16T07:42:54.764Z,69.84
2019-02-16T07:45:51.314Z,69.73
2019-02-16T07:48:33.856Z,69.99
2019-02-16T07:51:23.332Z,69.93
2019-02-16T07:54:22.244Z,69.96
2019-02-16T07:56:59.950Z,70.09
2019-02-16T07:59:46.824Z,69.85
2019-02-16T08:02:18.899Z,69.67
2019-02-16T08:05:11.542Z,69.48
2019-02-16T08:08:13.484Z,69.34
2019-02-16T08:11:03.079Z,69.19
2019-02-16T08:13:53.714Z,68.89
2019-02-16T08:16:28.453Z,68.87
2019-02-16T08:19:24.413Z,69.02
2019-02-16T08:22:24.617Z,69.15
2019-02-16T08:25:10.128Z,69.01
2019-02-16T08:27:49.749Z,69.34
2019-02-16T08:30:34.574Z,69.32
2019-02-16T08:33:21.391Z,69.46
2019-02-16T08:35:57.128Z,69.54
2019-02-16T08:38:34.551Z,69.23
2019-02-16T08:41:19.676Z,69.23
2019-02-16T08:44:24.736Z,69.24
2019-02-16T08:47:11.873Z,69.78
2019-02-16T08:49:57.108Z,69.47
2019-02-16T08:52:56.448Z,69.42
2019-02-16T08:55:47.107Z,69.24
2019-02-16T08:58:42.833Z,69.02
2019-02-16T09:01:21.521Z,69.10
2019-02-16T09:03:54.988Z,68.86
2019-02-16T09:06:42.776Z,68.50
2019-02-16T09:09:32.483Z,68.50
2019-02-16T09:12:11.539Z,68.70
2019-02-16T09:14:56.650Z,68.73
2019-02-16T09:17:43.433Z,68.31
2019-02-16T09:20:29.023Z,68.16
2019-02-16T09:23:13.463Z,68.02
2019-02-16T09:26:06.256Z,67.83
2019-02-16T09:28:53.406Z,67.52
2019-02-16T09:31:42.906Z,67.52
2019-02-16T09:34:18.650Z,66.99
2019-02-16T09:37:17.610Z,67.39
2019-02-16T09:40:13.495Z,67.30
2019-02-16T09:43:09.192Z,67.15
2019-02-16T09:45:55.997Z,66.97
2019-02-16T09:48:51.454Z,67.09
2019-02-16T09:51:41.091Z,67.72
2019-02-16T09:54:30.753Z,71.31
2019-02-16T09:57:04.892Z,72.62
2019-02-16T09:59:54.293Z,72.21
2019-02-16T10:02:46.939Z,71.75
2019-02-16T10:05:45.701Z,71.26
2019-02-16T10:08:41.305Z,71.26
2019-02-16T10:11:20.462Z,71.35
2019-02-16T10:14:07.533Z,70.40
2019-02-16T10:16:57.225Z,70.13
2019-02-16T10:20:02.025Z,69.46
2019-02-16T10:22:50.260Z,68.50
2019-02-16T10:25:27.061Z,69.12
2019-02-16T10:28:07.016Z,69.02
2019-02-16T10:30:49.568Z,68.90
2019-02-16T10:33:29.170Z,68.90
2019-02-16T10:36:34.172Z,68.79
2019-02-16T10:39:35.894Z,69.15
2019-02-16T10:42:20.848Z,68.06
2019-02-16T10:45:06.352Z,68.06
2019-02-16T10:47:53.161Z,68.06
2019-02-16T10:50:31.204Z,67.79
2019-02-16T10:53:26.723Z,67.68
2019-02-16T10:56:19.113Z,68.04
2019-02-16T10:59:14.816Z,67.55
2019-02-16T11:02:07.702Z,67.55
2019-02-16T11:04:45.739Z,67.06
2019-02-16T11:07:38.912Z,67.22
2019-02-16T11:10:24.514Z,66.86
2019-02-16T11:13:14.161Z,66.87
2019-02-16T11:16:12.942Z,67.20
2019-02-16T11:19:02.783Z,67.37
2019-02-16T11:21:37.382Z,67.38
2019-02-16T11:24:39.342Z,66.45
2019-02-16T11:27:19.383Z,66.46
2019-02-16T11:30:11.980Z,66.08
2019-02-16T11:33:07.584Z,66.48
2019-02-16T11:35:44.685Z,66.54
2019-02-16T11:38:30.235Z,66.30
2019-02-16T11:41:26.121Z,65.45
2019-02-16T11:44:15.658Z,65.81
2019-02-16T11:47:01.064Z,66.10
2019-02-16T11:49:53.788Z,65.55
2019-02-16T11:52:43.158Z,65.40
2019-02-16T11:55:24.504Z,65.45
2019-02-16T11:58:04.105Z,64.76
2019-02-16T12:00:53.508Z,64.70
2019-02-16T12:03:34.710Z,65.04
2019-02-16T12:06:16.746Z,64.79
2019-02-16T12:09:02.248Z,64.74
2019-02-16T12:11:40.994Z,64.41
2019-02-16T12:14:17.880Z,64.76
2019-02-16T12:17:07.703Z,64.63
2019-02-16T12:20:00.629Z,63.93
2019-02-16T12:22:56.315Z,64.30
2019-02-16T12:25:55.084Z,63.63
2019-02-16T12:28:38.869Z,63.40
2019-02-16T12:31:16.110Z,63.11
2019-02-16T12:33:50.897Z,63.01
2019-02-16T12:36:26.447Z,63.03
2019-02-16T12:39:04.800Z,63.83
2019-02-16T12:41:49.433Z,62.60
2019-02-16T12:44:38.836Z,62.70
2019-02-16T12:47:24.268Z,62.21
2019-02-16T12:50:13.931Z,62.29
2019-02-16T12:53:08.720Z,62.27
2019-02-16T12:55:58.506Z,62.46
2019-02-16T12:58:36.228Z,62.17
2019-02-16T13:01:14.937Z,61.71
2019-02-16T13:04:16.745Z,61.90
2019-02-16T13:07:03.577Z,62.03
2019-02-16T13:09:36.511Z,61.64
2019-02-16T13:12:22.178Z,62.11
2019-02-16T13:14:58.464Z,62.73
2019-02-16T13:17:38.089Z,62.13
2019-02-16T13:20:22.863Z,62.70
2019-02-16T13:23:27.879Z,62.98
2019-02-16T13:26:13.279Z,62.79
2019-02-16T13:28:48.084Z,62.53
2019-02-16T13:31:26.083Z,62.53
2019-02-16T13:33:58.975Z,62.26
2019-02-16T13:36:32.398Z,62.07
2019-02-16T13:39:17.655Z,62.67
2019-02-16T13:41:51.739Z,63.01
2019-02-16T13:44:41.146Z,63.06
2019-02-16T13:47:30.873Z,63.41
2019-02-16T13:50:16.371Z,62.78
2019-02-16T13:52:59.284Z,63.14
2019-02-16T13:55:41.514Z,62.95
2019-02-16T13:58:31.273Z,63.59
2019-02-16T14:01:20.888Z,63.47
2019-02-16T14:04:01.467Z,63.48
2019-02-16T14:06:54.163Z,64.16
2019-02-16T14:09:46.559Z,63.36
2019-02-16T14:12:24.371Z,63.99
2019-02-16T14:15:07.606Z,64.37
2019-02-16T14:17:46.775Z,64.13
2019-02-16T14:20:14.055Z,64.14
2019-02-16T14:22:41.403Z,64.68
2019-02-16T14:25:12.284Z,64.21
2019-02-16T14:27:39.520Z,64.28
2019-02-16T14:30:08.119Z,64.24
2019-02-16T14:32:35.376Z,64.43
2019-02-16T14:35:03.039Z,64.25
2019-02-16T14:37:50.136Z,64.46
2019-02-16T14:40:17.371Z,64.42
2019-02-16T14:42:44.662Z,64.49
2019-02-16T14:45:12.688Z,64.51
2019-02-16T14:47:39.913Z,64.77
2019-02-16T14:50:07.809Z,64.95
2019-02-16T14:52:35.044Z,65.23
2019-02-16T14:55:02.962Z,65.57
2019-02-16T14:57:30.160Z,65.51
2019-02-16T14:59:57.412Z,65.72
2019-02-16T15:02:24.684Z,65.46
2019-02-16T15:04:51.921Z,65.34
2019-02-16T15:07:19.187Z,65.57
2019-02-16T15:09:46.505Z,65.79
2019-02-16T15:12:13.741Z,66.07
2019-02-16T15:14:41.166Z,66.14
2019-02-16T15:17:08.672Z,66.01
2019-02-16T15:19:36.217Z,65.92
2019-02-16T15:22:03.476Z,65.85
2019-02-16T15:24:31.149Z,66.04
2019-02-16T15:26:58.939Z,66.47
2019-02-16T15:29:26.178Z,67.03
2019-02-16T15:31:53.549Z,66.54
2019-02-16T15:34:21.826Z,66.76
2019-02-16T15:36:49.054Z,66.70
2019-02-16T15:39:16.445Z,66.79
2019-02-16T15:41:43.706Z,67.00
2019-02-16T15:44:10.977Z,66.95
2019-02-16T15:46:38.243Z,67.02
2019-02-16T15:49:05.496Z,67.38
2019-02-16T15:51:32.755Z,67.38
2019-02-16T15:54:00.008Z,67.32
2019-02-16T15:56:28.353Z,67.23
2019-02-16T15:58:55.649Z,67.66
2019-02-16T16:01:22.928Z,67.50
2019-02-16T16:03:50.213Z,67.27
2019-02-16T16:06:17.495Z,67.17
2019-02-16T16:08:55.591Z,67.59
2019-02-16T16:12:00.952Z,67.81
2019-02-16T16:15:00.291Z,67.78
2019-02-16T16:17:40.567Z,68.10
2019-02-16T16:20:34.165Z,68.13
2019-02-16T16:23:21.096Z,68.32
2019-02-16T16:25:59.632Z,68.23
2019-02-16T16:28:46.474Z,68.02
2019-02-16T16:31:39.501Z,67.97
2019-02-16T16:34:41.536Z,67.83
2019-02-16T16:37:19.246Z,67.67
2019-02-16T16:40:24.143Z,67.82
2019-02-16T16:43:01.058Z,67.75
2019-02-16T16:45:59.882Z,68.57
2019-02-16T16:48:41.127Z,68.30
2019-02-16T16:51:33.764Z,68.29
2019-02-16T16:54:35.729Z,68.25
2019-02-16T16:57:21.476Z,68.42
2019-02-16T16:59:58.501Z,68.29
2019-02-16T17:02:45.291Z,68.96
2019-02-16T17:05:40.962Z,68.76
2019-02-16T17:08:33.608Z,68.76
2019-02-16T17:11:18.970Z,68.75
2019-02-16T17:14:08.728Z,69.14
2019-02-16T17:16:54.199Z,69.27
2019-02-16T17:19:27.446Z,69.39
2019-02-16T17:22:16.998Z,69.22
2019-02-16T17:25:06.624Z,69.06
2019-02-16T17:27:40.831Z,68.87
2019-02-16T17:30:45.768Z,68.68
2019-02-16T17:33:27.312Z,68.55
2019-02-16T17:36:07.192Z,68.51
2019-02-16T17:38:52.853Z,68.71
2019-02-16T17:41:54.886Z,68.56
2019-02-16T17:44:53.357Z,68.49
2019-02-16T17:47:40.033Z,68.46
2019-02-16T17:50:13.739Z,68.54
2019-02-16T17:53:03.192Z,68.39
2019-02-16T17:55:48.897Z,68.54
2019-02-16T17:58:35.661Z,68.63
2019-02-16T18:01:20.986Z,68.52
2019-02-16T18:04:26.124Z,68.64
2019-02-16T18:07:11.681Z,68.52
2019-02-16T18:10:07.255Z,68.59
2019-02-16T18:12:59.693Z,68.47
2019-02-16T18:15:49.580Z,68.27
2019-02-16T18:18:30.428Z,68.44
2019-02-16T18:21:12.230Z,68.37
2019-02-16T18:23:57.803Z,68.34
2019-02-16T18:26:43.460Z,68.27
2019-02-16T18:29:48.253Z,68.40
2019-02-16T18:32:33.598Z,68.40
2019-02-16T18:35:23.448Z,68.44
2019-02-16T18:38:05.356Z,68.31
2019-02-16T18:41:07.035Z,68.33
2019-02-16T18:43:59.854Z,68.40
2019-02-16T18:46:45.515Z,68.63
2019-02-16T18:49:41.130Z,68.69
2019-02-16T18:52:26.395Z,69.12
2019-02-16T18:55:16.252Z,69.26
2019-02-16T18:57:57.917Z,69.18
2019-02-16T19:00:53.708Z,69.05
2019-02-16T19:03:38.987Z,69.09
2019-02-16T19:06:17.569Z,69.22
2019-02-16T19:08:56.964Z,69.30
2019-02-16T19:11:52.643Z,69.52
2019-02-16T19:14:42.045Z,70.02
2019-02-16T19:17:14.502Z,70.10
2019-02-16T19:20:07.004Z,70.31
2019-02-16T19:22:59.753Z,70.18
2019-02-16T19:25:55.541Z,70.31
2019-02-16T19:29:00.750Z,70.27
2019-02-16T19:31:56.254Z,70.18
2019-02-16T19:34:38.009Z,70.45
2019-02-16T19:37:30.903Z,70.53
2019-02-16T19:40:07.483Z,70.26
2019-02-16T19:42:47.606Z,70.23
2019-02-16T19:45:34.455Z,70.35
2019-02-16T19:48:23.965Z,70.59
2019-02-16T19:51:17.092Z,70.77
2019-02-16T19:54:03.843Z,70.72
2019-02-16T19:56:49.117Z,70.80
2019-02-16T19:59:35.911Z,70.91
2019-02-16T20:02:19.813Z,71.28
2019-02-16T20:05:12.453Z,71.78
2019-02-16T20:07:52.517Z,71.52
2019-02-16T20:10:37.707Z,71.58
2019-02-16T20:13:33.167Z,71.63
2019-02-16T20:16:15.744Z,71.39
2019-02-16T20:18:56.913Z,71.27
2019-02-16T20:21:49.333Z,71.62
2019-02-16T20:24:38.775Z,71.43
2019-02-16T20:27:18.123Z,71.49
2019-02-16T20:30:10.857Z,71.66
2019-02-16T20:32:57.637Z,72.04
2019-02-16T20:35:34.482Z,72.17
2019-02-16T20:38:39.401Z,72.17
2019-02-16T20:41:35.113Z,72.05
2019-02-16T20:44:27.580Z,72.63
2019-02-16T20:47:14.431Z,72.54
2019-02-16T20:50:06.999Z,72.74
2019-02-16T20:52:52.339Z,73.18
2019-02-16T20:55:41.712Z,72.83
2019-02-16T20:58:34.261Z,72.28
2019-02-16T21:01:17.294Z,72.20
2019-02-16T21:04:12.945Z,71.90
2019-02-16T21:07:02.426Z,72.01
2019-02-16T21:09:54.127Z,71.86
2019-02-16T21:12:50.159Z,71.86
2019-02-16T21:15:26.558Z,71.64
2019-02-16T21:18:02.132Z,71.81
2019-02-16T21:20:44.215Z,71.96
2019-02-16T21:23:29.801Z,72.09
2019-02-16T21:26:05.125Z,71.93
2019-02-16T21:28:51.924Z,71.77
2019-02-16T21:31:24.495Z,71.90
2019-02-16T21:34:11.270Z,71.78
2019-02-16T21:36:43.321Z,71.80
2019-02-16T21:39:38.986Z,71.56
2019-02-16T21:42:40.804Z,71.56
2019-02-16T21:45:24.612Z,71.44
2019-02-16T21:48:23.512Z,71.44
2019-02-16T21:51:08.732Z,71.16
2019-02-16T21:53:49.415Z,71.02
2019-02-16T21:56:36.429Z,70.85
2019-02-16T21:59:38.178Z,70.87
2019-02-16T22:02:23.766Z,71.07
2019-02-16T22:05:09.060Z,71.07
2019-02-16T22:08:01.847Z,71.08
2019-02-16T22:11:00.686Z,70.83
2019-02-16T22:13:27.925Z,70.67
2019-02-16T22:15:55.173Z,70.65
2019-02-16T22:18:22.442Z,70.69
2019-02-16T22:20:49.677Z,70.46
2019-02-16T22:23:16.915Z,70.37
2019-02-16T22:25:44.195Z,70.17
2019-02-16T22:28:18.316Z,69.98
2019-02-16T22:30:40.607Z,69.80
2019-02-16T22:33:07.863Z,69.78
2019-02-16T22:35:35.081Z,69.85
2019-02-16T22:38:02.386Z,69.96
2019-02-16T22:40:29.620Z,70.25
2019-02-16T22:42:56.882Z,70.18
2019-02-16T22:45:24.163Z,70.20
2019-02-16T22:47:51.398Z,70.23
2019-02-16T22:50:18.645Z,69.92
2019-02-16T22:52:45.889Z,69.91
2019-02-16T22:55:13.150Z,69.68
2019-02-16T22:57:40.432Z,69.56
2019-02-16T23:00:15.686Z,69.40
2019-02-16T23:02:43.084Z,69.40
2019-02-16T23:05:10.311Z,69.41
2019-02-16T23:07:37.533Z,69.33
2019-02-16T23:10:06.705Z,69.24
2019-02-16T23:12:33.917Z,69.20
2019-02-16T23:15:01.175Z,69.13
2019-02-16T23:17:28.478Z,69.04
2019-02-16T23:19:55.740Z,68.99
2019-02-16T23:22:22.949Z,68.20
2019-02-16T23:24:50.207Z,68.64
2019-02-16T23:27:17.438Z,68.50
2019-02-16T23:29:44.782Z,68.51
2019-02-16T23:32:12.071Z,68.51
2019-02-16T23:34:39.293Z,68.28
2019-02-16T23:37:06.517Z,68.07
2019-02-16T23:39:33.774Z,68.09
2019-02-16T23:42:01.040Z,68.06
2019-02-16T23:44:28.265Z,68.06
2019-02-16T23:46:55.528Z,67.97
2019-02-16T23:49:22.763Z,67.83
2019-02-16T23:51:49.974Z,67.85
2019-02-16T23:54:17.230Z,67.89
2019-02-16T23:56:44.535Z,67.89
2019-02-16T23:59:11.808Z,67.82
